Archival Weather

Gondia Arpt/Birsi

Gondia Arpt/Birsi, India (VAGD)

Report from: Thursday, April 25, 2024 7:30 AM UTC
Current time: Saturday, June 22, 2024 9:13 AM UTC

Current weather – Weather history – Daily summaries
Weather forecast

Present weatherHaze
Temperature37.0°C (98.6°F)
Heat index40.2°C (104.3°F)
Dew point20.0°C (68.0°F)
Winds 7 kts (3.6 m/s, 8.1 mph) Southwest (230°)
Visibility3.1 mi. (5 km)
Clouds Few clouds 2,000 ft. (610 m)
Scattered clouds 10,000 ft. (3,048 m)
Altimeter29.77 in.Hg (1008 mB)
Relative humidity37 %
Density altitude2,978 ft. (908 m)
Remarks No significant changes expected in the next two hours
Flight conditions Marginal Visual Meteorological Conditions
Raw dataVAGD 250730Z 23007KT 5000 HZ FEW020 SCT100 37/20 Q1008 NOSIG
An error has occurred. This application may no longer respond until reloaded. Reload 🗙